Stations météo

réclame
Mon MeteoGroup
Retie, Belgique (6464): Température de l'air & dewpoint: 17.09.2017 23:00:00 - 23.09.2017 23:00:00 (CEST)Retie, Belgique (6464): Vitesse du vent & gusts: 17.09.2017 23:00:00 - 23.09.2017 23:00:00 (CEST)Retie, Belgique (6464): Direction du vent: 17.09.2017 23:00:00 - 23.09.2017 23:00:00 (CEST)Retie, Belgique (6464): reduced air pressure: 17.09.2017 23:00:00 - 23.09.2017 23:00:00 (CEST)Retie, Belgique (6464): Ensoleillement: 17.09.2017 23:00:00 - 23.09.2017 23:00:00 (CEST)Retie, Belgique (6464): Quantités de précipitations: 17.09.2017 23:00:00 - 23.09.2017 23:00:00 (CEST)
Date & Time tt [°C] td [°C] ff [km/h] ff [knt] fx [km/h] fx [knt] dd ppp [hPa] sd [min] rr [mm]
23.09.2017 23:00:00 8,1 7,3 0 0 - - N 1023,5 - -
23.09.2017 22:00:00 7,9 6,9 0 0 3 1 N 1023,6 0 0,0
23.09.2017 21:00:00 9,4 7,3 0 0 4 2 N 1023,4 0 0,0
23.09.2017 20:00:00 11,1 7,3 0 0 4 2 N 1023,4 0 0,0
23.09.2017 19:00:00 15,6 6,7 4 2 10 6 ENE 1023,3 53 0,0
23.09.2017 18:00:00 16,8 7,2 5 3 13 7 ESE 1023,2 60 0,0
23.09.2017 17:00:00 16,9 6,0 9 5 16 9 E 1023,4 60 0,0
23.09.2017 16:00:00 17,0 8,5 7 4 15 8 ENE 1024,2 60 0,0
23.09.2017 15:00:00 16,8 8,3 7 4 14 8 E 1024,8 60 0,0
23.09.2017 14:00:00 16,0 9,8 4 2 14 8 E 1024,9 57 0,0
23.09.2017 13:00:00 13,1 12,0 8 5 12 6 ESE 1025,4 37 0,0
23.09.2017 12:00:00 11,5 10,9 4 2 8 4 E 1025,6 4 0,0
23.09.2017 11:00:00 10,1 9,5 4 2 8 5 SE 1025,7 9 0,0
23.09.2017 10:00:00 8,0 7,5 4 2 7 4 ESE 1025,3 35 0,0
23.09.2017 09:00:00 5,5 5,0 0 0 3 2 N 1025,2 2 0,0
23.09.2017 08:00:00 4,6 4,1 4 2 5 3 SSE 1025,1 0 0,0
23.09.2017 07:00:00 4,9 4,4 0 0 3 1 N 1024,9 0 0,0
23.09.2017 06:00:00 5,2 4,7 0 0 3 1 N 1024,8 0 0,0
23.09.2017 05:00:00 5,4 4,9 0 0 3 2 N 1024,6 0 0,0
23.09.2017 04:00:00 5,4 4,8 0 0 1 0 N 1024,6 0 0,0
23.09.2017 03:00:00 5,6 5,0 0 0 3 1 N 1024,6 0 0,0
23.09.2017 02:00:00 5,8 5,0 0 0 3 2 N 1024,5 0 0,0
23.09.2017 01:00:00 7,3 6,5 0 0 3 2 N 1024,1 0 0,0
23.09.2017 00:00:00 8,3 7,3 0 0 4 2 N 1024,0 0 0,0
22.09.2017 23:00:00 9,9 8,2 0 0 6 4 N 1023,9 0 0,0
22.09.2017 22:00:00 11,9 9,4 4 2 6 3 WNW 1023,6 0 0,0
22.09.2017 21:00:00 14,0 10,3 4 2 7 4 W 1023,2 0 0,0
22.09.2017 20:00:00 15,7 11,2 7 4 12 7 NW 1022,2 0 0,0
22.09.2017 19:00:00 16,7 12,5 6 3 15 8 NW 1021,8 0 0,0
22.09.2017 18:00:00 17,8 12,1 6 3 16 9 W 1021,3 16 0,0
22.09.2017 17:00:00 18,6 11,2 6 3 14 7 SW 1021,1 43 0,0
22.09.2017 16:00:00 18,7 12,2 7 4 17 9 SW 1021,3 28 0,0
22.09.2017 15:00:00 18,0 12,4 7 4 14 7 WSW 1021,1 0 0,0
22.09.2017 14:00:00 18,3 12,8 4 2 11 6 WSW 1021,1 6 0,0
22.09.2017 13:00:00 17,4 12,2 4 2 6 4 S 1020,9 8 0,0
22.09.2017 12:00:00 16,4 12,6 4 2 6 3 NNW 1020,9 47 0,0
22.09.2017 11:00:00 14,8 11,8 4 2 7 4 SSW 1020,9 60 0,0
22.09.2017 10:00:00 11,1 10,5 4 2 6 3 S 1020,7 25 0,0
22.09.2017 09:00:00 10,0 9,5 4 2 4 2 ESE 1020,4 26 0,0
22.09.2017 08:00:00 7,2 6,7 4 2 4 2 E 1020,0 0 0,0
22.09.2017 07:00:00 7,2 6,6 4 2 4 2 E 1019,7 0 0,0
22.09.2017 06:00:00 7,7 7,2 0 0 4 2 N 1019,6 0 0,0
22.09.2017 05:00:00 7,0 6,5 4 2 3 2 E 1019,6 0 0,0
22.09.2017 04:00:00 - - - - - - - - - -
22.09.2017 03:00:00 - - - - - - - - 0 -
22.09.2017 02:00:00 8,1 7,4 0 0 2 1 N 1019,9 0 0,0
22.09.2017 01:00:00 8,2 7,3 0 0 1 1 N 1019,8 0 0,0
22.09.2017 00:00:00 9,4 8,5 0 0 1 0 N 1019,8 0 0,0
21.09.2017 23:00:00 9,9 8,9 0 0 2 1 N 1019,8 0 0,0
21.09.2017 22:00:00 10,2 8,8 0 0 1 0 N 1019,8 0 0,0
21.09.2017 21:00:00 11,5 9,8 0 0 3 2 N 1019,7 0 0,0
21.09.2017 20:00:00 12,6 9,3 4 2 5 3 E 1019,0 0 0,0
21.09.2017 19:00:00 15,7 9,7 4 2 11 6 ESE 1019,0 29 0,0
21.09.2017 18:00:00 17,9 8,8 9 5 16 8 SE 1018,8 60 0,0
21.09.2017 17:00:00 18,9 8,6 9 5 18 10 SSE 1019,1 60 0,0
21.09.2017 16:00:00 18,4 9,2 11 6 18 10 SE 1019,2 60 0,0
21.09.2017 15:00:00 18,2 9,3 10 5 16 9 SSE 1019,8 60 0,0
21.09.2017 14:00:00 17,4 9,2 11 6 18 10 SSE 1020,2 60 0,0
21.09.2017 13:00:00 17,2 9,1 10 5 18 10 S 1020,5 60 0,0
21.09.2017 12:00:00 16,3 9,5 11 6 18 10 S 1020,7 - -
21.09.2017 11:00:00 14,5 8,7 10 5 16 8 SSE 1021,2 60 0,0
21.09.2017 10:00:00 12,0 8,2 9 5 13 7 SSE 1020,9 60 0,0
21.09.2017 09:00:00 10,1 8,2 8 4 12 7 SSE 1020,9 60 0,0
21.09.2017 08:00:00 7,4 6,5 7 4 8 5 SSE 1020,7 3 0,0
21.09.2017 07:00:00 7,5 6,5 4 2 7 4 SSE 1020,6 0 0,0
21.09.2017 06:00:00 8,0 6,7 4 2 8 4 SE 1020,5 0 0,0
21.09.2017 05:00:00 8,8 7,1 5 3 7 4 SE 1020,5 0 0,0
21.09.2017 04:00:00 9,7 7,5 5 3 8 4 SSE 1020,9 0 0,0
21.09.2017 03:00:00 10,7 8,4 4 2 7 4 SSE 1021,1 0 0,0
21.09.2017 02:00:00 11,4 8,9 4 2 7 4 SSE 1021,0 0 0,0
21.09.2017 01:00:00 11,0 9,3 4 2 6 4 SSE 1021,0 0 0,0
21.09.2017 00:00:00 10,5 9,0 4 2 6 3 SSE 1021,0 0 0,0
20.09.2017 23:00:00 9,4 8,1 4 2 6 3 S 1021,0 0 0,0
20.09.2017 22:00:00 9,4 8,1 4 2 3 2 E 1021,0 0 0,0
20.09.2017 21:00:00 11,3 9,0 0 0 5 3 N 1021,0 0 0,0
20.09.2017 20:00:00 13,0 8,5 4 2 10 6 S 1020,3 0 0,0
20.09.2017 19:00:00 16,2 8,9 7 4 20 11 SW 1020,4 37 0,0
20.09.2017 18:00:00 18,3 9,5 7 4 15 8 SW 1020,3 34 0,0
20.09.2017 17:00:00 18,4 9,4 8 4 19 10 WSW 1020,5 51 0,0
20.09.2017 16:00:00 18,0 8,5 8 4 18 10 WSW 1020,9 34 0,0
20.09.2017 15:00:00 16,3 9,0 6 3 21 11 SW 1021,2 31 0,0
20.09.2017 14:00:00 16,2 9,1 6 4 17 9 SW 1021,4 29 0,0
20.09.2017 13:00:00 16,0 9,9 9 5 17 9 SSW 1021,5 33 0,0
20.09.2017 12:00:00 14,8 9,6 11 6 21 11 WSW 1022,1 55 0,0
20.09.2017 11:00:00 13,7 9,7 9 5 19 10 SW 1021,8 60 0,0
20.09.2017 10:00:00 12,5 9,6 8 4 14 8 SW 1021,7 60 0,0
20.09.2017 09:00:00 10,6 9,8 6 3 11 6 SSW 1021,3 55 0,0
20.09.2017 08:00:00 9,3 8,5 4 2 8 5 SSW 1021,3 0 0,0
20.09.2017 07:00:00 10,2 9,5 6 4 11 6 SSW 1021,3 0 0,0
20.09.2017 06:00:00 9,7 8,9 0 0 5 3 N 1021,3 0 0,0
20.09.2017 05:00:00 10,4 9,5 4 2 8 4 SW 1021,3 0 0,0
20.09.2017 04:00:00 10,8 9,9 4 2 4 2 WSW 1021,3 0 0,0
20.09.2017 03:00:00 11,3 10,4 4 2 5 3 SW 1021,4 0 0,0
20.09.2017 02:00:00 10,6 9,8 4 2 6 3 SW 1021,7 0 0,0
20.09.2017 01:00:00 10,7 9,7 0 0 3 2 N 1021,7 0 0,0
20.09.2017 00:00:00 10,6 9,6 0 0 1 0 N 1021,8 0 0,0
19.09.2017 23:00:00 9,8 8,3 0 0 5 3 N 1021,7 0 0,0
19.09.2017 22:00:00 11,2 9,4 4 2 5 3 W 1021,7 0 0,0
19.09.2017 21:00:00 12,7 9,5 4 2 8 4 WNW 1021,2 0 0,0
19.09.2017 20:00:00 14,1 10,3 4 2 6 4 W 1020,7 0 0,0
19.09.2017 19:00:00 15,5 9,8 4 2 16 8 W 1020,1 7 0,0
19.09.2017 18:00:00 16,8 8,8 9 5 15 8 WNW 1019,9 59 0,0
19.09.2017 17:00:00 16,7 8,0 7 4 15 8 WNW 1019,6 37 0,0
19.09.2017 16:00:00 17,0 7,6 5 3 13 7 NNW 1019,3 46 0,0
19.09.2017 15:00:00 16,9 8,8 5 3 13 7 N 1019,6 55 0,0
19.09.2017 14:00:00 15,7 9,7 4 2 14 7 N 1019,4 45 0,0
19.09.2017 13:00:00 14,0 10,3 7 4 15 8 NW 1019,6 37 0,0
19.09.2017 12:00:00 12,5 11,7 4 2 9 5 WNW 1019,0 6 0,0
19.09.2017 11:00:00 11,2 10,5 4 2 14 8 NW 1018,7 0 0,0
19.09.2017 10:00:00 10,4 9,8 6 3 15 8 N 1018,0 0 0,0
19.09.2017 09:00:00 10,1 9,5 4 2 9 5 W 1017,2 0 0,0
19.09.2017 08:00:00 9,0 8,4 4 2 7 4 W 1016,8 0 0,0
19.09.2017 07:00:00 9,4 8,7 4 2 8 5 WSW 1016,4 0 0,0
19.09.2017 06:00:00 9,1 8,5 4 2 6 4 SW 1016,2 0 0,0
19.09.2017 05:00:00 9,2 8,5 4 2 8 4 SSW 1016,1 0 0,0
19.09.2017 04:00:00 9,6 8,8 5 3 10 5 SSW 1015,9 0 0,0
19.09.2017 03:00:00 9,5 8,7 4 2 13 7 S 1015,8 0 0,0
19.09.2017 02:00:00 10,1 9,2 4 2 11 6 WSW 1015,8 0 0,0
19.09.2017 01:00:00 10,4 9,5 6 3 11 6 SW 1015,8 0 0,0
19.09.2017 00:00:00 10,8 9,9 5 3 13 7 SW 1015,8 0 0,0
18.09.2017 23:00:00 10,8 9,8 6 3 10 6 SW 1015,7 0 0,0
18.09.2017 22:00:00 10,8 9,7 5 3 10 5 SSW 1015,6 0 0,0
18.09.2017 21:00:00 11,5 10,1 4 2 9 5 SW 1015,7 0 0,0
18.09.2017 20:00:00 12,1 10,6 4 2 16 8 S 1015,0 0 3,3
18.09.2017 19:00:00 13,2 11,3 4 2 12 7 SSE 1014,7 4 1,5
18.09.2017 18:00:00 13,0 10,7 5 3 13 7 SSW 1014,5 17 0,1
18.09.2017 17:00:00 12,4 10,9 6 3 11 6 SSW 1014,5 3 1,4
18.09.2017 16:00:00 12,1 10,5 4 2 9 5 SSW 1014,4 0 0,8
18.09.2017 15:00:00 11,4 9,7 4 2 16 8 NW 1014,8 0 4,4
18.09.2017 14:00:00 11,1 8,3 14 8 34 18 WNW 1014,7 6 1,0
18.09.2017 13:00:00 15,5 10,2 8 4 17 9 SSW 1013,8 7 0,0
18.09.2017 12:00:00 14,9 10,1 10 6 19 10 SW 1014,4 45 0,0
18.09.2017 11:00:00 13,7 10,6 9 5 17 9 SW 1014,4 58 0,0
18.09.2017 10:00:00 11,8 10,3 8 4 17 9 SSW 1014,2 33 0,0
18.09.2017 09:00:00 10,2 9,2 10 5 15 8 SSW 1014,1 0 0,0
18.09.2017 08:00:00 9,6 8,7 7 4 12 6 SSW 1013,9 0 0,0
18.09.2017 07:00:00 9,3 8,4 6 3 11 6 SSW 1013,6 0 0,0
18.09.2017 06:00:00 9,5 8,5 5 3 9 5 SSW 1013,5 0 0,0
18.09.2017 05:00:00 9,1 8,2 6 3 8 4 S 1013,5 0 0,0
18.09.2017 04:00:00 8,8 7,9 4 2 6 4 S 1013,5 0 0,0
18.09.2017 03:00:00 8,4 7,2 4 2 6 3 S 1013,9 0 0,0
18.09.2017 02:00:00 10,8 9,5 0 0 16 9 N 1013,6 0 1,6
18.09.2017 01:00:00 11,2 8,7 5 3 11 6 WSW 1014,0 0 0,0
18.09.2017 00:00:00 10,7 8,4 0 0 6 4 N 1014,0 0 0,0
17.09.2017 23:00:00 10,4 8,2 4 2 8 4 S 1013,9 0 0,0

tt = Température de l'air
td = dewpoint
ff = Vitesse du vent
fx = gusts
dd = Direction du vent
ppp = reduced air pressure
sd = Ensoleillement
rr = Quantités de précipitations

stations d'obs. à proximité